Time;durP1;ratioP1;P1;durP2;ratioP2;P2;SDS_P1;SDS_P2;PMS_P1;PMS_P2;Temp;Humidity;BMP_temperature;BMP_pressure;BME280_temperature;BME280_humidity;BME280_pressure;Samples;Min_cycle;Max_cycle;Signal;HPM_P1;HPM_P2
2023/10/08 00:02:25;;;;;;;5.15;2.88;;;;;15.10;101870.00;;;;10462388;28;20850;-73
2023/10/08 00:07:27;;;;;;;8.07;2.72;;;;;15.10;101865.00;;;;10462498;28;20197;-73
2023/10/08 00:12:30;;;;;;;4.63;2.63;;;;;15.10;101872.00;;;;10458148;28;20221;-74
2023/10/08 00:17:31;;;;;;;5.75;3.65;;;;;15.10;101881.00;;;;10471367;28;20745;-74
2023/10/08 00:22:35;;;;;;;5.28;3.22;;;;;15.00;101872.00;;;;10469554;28;20198;-70
2023/10/08 00:27:38;;;;;;;5.85;3.45;;;;;15.00;101861.00;;;;10466594;28;20202;-71
2023/10/08 00:32:41;;;;;;;6.10;3.10;;;;;14.90;101875.00;;;;10466222;28;20750;-70
2023/10/08 00:37:44;;;;;;;5.70;3.13;;;;;14.90;101879.00;;;;10467688;28;20263;-71
2023/10/08 00:42:47;;;;;;;7.82;2.97;;;;;14.90;101883.00;;;;10467929;28;20197;-72
2023/10/08 00:47:49;;;;;;;6.80;3.33;;;;;14.80;101896.00;;;;10475241;28;20204;-71
2023/10/08 00:53:00;;;;;;;8.60;3.38;;;;;14.80;101889.00;;;;10471100;28;20705;-70
2023/10/08 00:58:09;;;;;;;6.97;2.90;;;;;14.80;101892.00;;;;10465258;28;20198;-71
2023/10/08 01:03:19;;;;;;;6.35;3.08;;;;;14.70;101897.00;;;;10471635;28;20205;-70
2023/10/08 01:08:36;;;;;;;3.55;2.42;;;;;14.60;101899.00;;;;10466649;28;20743;-71
2023/10/08 01:13:44;;;;;;;9.10;3.55;;;;;14.50;101905.00;;;;10462226;28;20332;-70
2023/10/08 01:18:50;;;;;;;10.40;3.45;;;;;14.40;101892.00;;;;10466235;28;20207;-70
2023/10/08 01:23:54;;;;;;;9.85;3.50;;;;;14.30;101887.00;;;;10465577;28;20236;-70
2023/10/08 01:28:56;;;;;;;7.38;3.38;;;;;14.20;101887.00;;;;10462851;28;20243;-72
2023/10/08 01:33:58;;;;;;;7.53;3.00;;;;;14.30;101889.00;;;;10459859;28;20222;-71
2023/10/08 01:39:02;;;;;;;6.10;3.33;;;;;14.30;101884.00;;;;10458641;28;20233;-70
2023/10/08 01:44:07;;;;;;;5.53;3.63;;;;;14.30;101874.00;;;;10461892;28;20210;-69
2023/10/08 01:49:14;;;;;;;6.60;3.40;;;;;14.40;101882.00;;;;10463725;28;20217;-72
2023/10/08 01:54:20;;;;;;;8.10;2.90;;;;;14.40;101861.00;;;;10464966;28;20301;-73
2023/10/08 01:59:23;;;;;;;7.03;3.28;;;;;14.30;101870.00;;;;10460394;28;20755;-69
2023/10/08 02:04:25;;;;;;;5.78;3.47;;;;;14.30;101860.00;;;;10457692;28;20275;-70
2023/10/08 02:09:28;;;;;;;10.57;3.55;;;;;14.30;101862.00;;;;10459141;28;20236;-70
2023/10/08 02:14:31;;;;;;;7.13;3.72;;;;;14.30;101854.00;;;;10445429;28;20213;-70
2023/10/08 02:19:35;;;;;;;6.63;3.35;;;;;14.30;101847.00;;;;10460905;28;20213;-71
2023/10/08 02:24:39;;;;;;;4.18;3.38;;;;;14.30;101850.00;;;;10460774;28;20210;-70
2023/10/08 02:29:42;;;;;;;6.68;3.85;;;;;14.20;101843.00;;;;10463933;28;20194;-69
2023/10/08 02:34:44;;;;;;;5.43;3.20;;;;;14.20;101838.00;;;;10464150;28;20221;-69
2023/10/08 02:39:46;;;;;;;9.32;3.30;;;;;14.20;101839.00;;;;10453354;28;20221;-71
2023/10/08 02:44:51;;;;;;;7.03;3.33;;;;;14.30;101862.00;;;;10463310;28;20291;-70
2023/10/08 02:49:53;;;;;;;7.47;3.10;;;;;14.30;101886.00;;;;10464785;28;20309;-70
2023/10/08 02:54:55;;;;;;;9.32;3.63;;;;;14.50;101887.00;;;;10457811;28;20303;-70
2023/10/08 02:59:57;;;;;;;8.32;3.85;;;;;14.50;101881.00;;;;10441187;28;20205;-70
2023/10/08 03:04:59;;;;;;;10.77;3.72;;;;;14.50;101884.00;;;;10473535;28;20219;-71
2023/10/08 03:10:17;;;;;;;9.93;3.30;;;;;14.50;101890.00;;;;10457681;28;20217;-70
2023/10/08 03:15:29;;;;;;;10.18;3.55;;;;;14.60;101891.00;;;;10454770;28;20246;-70
2023/10/08 03:20:45;;;;;;;6.95;2.95;;;;;14.60;101888.00;;;;10462567;28;20209;-71
2023/10/08 03:25:47;;;;;;;6.43;3.30;;;;;14.50;101886.00;;;;10458010;28;20319;-73
2023/10/08 03:30:50;;;;;;;5.70;3.60;;;;;14.50;101886.00;;;;10453773;28;20233;-70
2023/10/08 03:35:55;;;;;;;5.68;3.47;;;;;14.50;101890.00;;;;10460924;28;20209;-71
2023/10/08 03:41:03;;;;;;;7.03;3.70;;;;;14.50;101887.00;;;;10455594;28;20217;-72
2023/10/08 03:46:14;;;;;;;7.40;3.63;;;;;14.40;101893.00;;;;10461215;28;20198;-72
2023/10/08 03:51:20;;;;;;;5.88;3.47;;;;;14.40;101909.00;;;;10460923;28;20225;-73
2023/10/08 03:56:24;;;;;;;8.82;4.20;;;;;14.40;101898.00;;;;10480030;28;20905;-73
2023/10/08 04:01:31;;;;;;;8.85;3.40;;;;;14.40;101912.00;;;;10471061;28;20213;-73
2023/10/08 04:11:35;;;;;;;9.20;3.90;;;;;14.30;101898.00;;;;10472547;28;20690;-72
2023/10/08 04:16:38;;;;;;;10.80;4.10;;;;;14.20;101908.00;;;;10474145;28;20205;-73
2023/10/08 04:21:42;;;;;;;9.57;4.15;;;;;14.00;101909.00;;;;10471504;28;20206;-73
2023/10/08 04:26:45;;;;;;;6.78;4.05;;;;;13.90;101921.00;;;;10471795;28;20231;-74
2023/10/08 04:31:54;;;;;;;11.10;4.45;;;;;13.80;101911.00;;;;10467659;28;20282;-73
2023/10/08 04:37:00;;;;;;;7.57;4.00;;;;;13.60;101919.00;;;;10471443;28;20706;-73
2023/10/08 04:42:06;;;;;;;8.95;4.10;;;;;13.50;101927.00;;;;10465959;28;20212;-73
2023/10/08 04:47:09;;;;;;;6.85;3.70;;;;;13.40;101922.00;;;;10468642;28;20659;-73
2023/10/08 04:52:14;;;;;;;8.97;4.23;;;;;13.40;101929.00;;;;10469616;28;20295;-73
2023/10/08 04:57:17;;;;;;;13.33;4.60;;;;;13.30;101933.00;;;;10464742;28;20225;-74
2023/10/08 05:02:20;;;;;;;9.93;3.97;;;;;13.30;101933.00;;;;10472484;28;20205;-75
2023/10/08 05:12:34;;;;;;;7.67;4.33;;;;;13.30;101927.00;;;;10464558;28;20233;-76
2023/10/08 05:17:56;;;;;;;8.60;4.80;;;;;13.30;101916.00;;;;10472694;28;20829;-75
2023/10/08 05:28:24;;;;;;;7.47;4.13;;;;;13.40;101917.00;;;;10465399;28;20213;-74
2023/10/08 05:33:40;;;;;;;10.67;4.50;;;;;13.50;101921.00;;;;10468269;28;20219;-75
2023/10/08 05:39:19;;;;;;;12.53;4.47;;;;;13.50;101931.00;;;;10463023;28;20570;-75
2023/10/08 05:44:23;;;;;;;8.50;4.57;;;;;13.40;101931.00;;;;10472155;28;20209;-75
2023/10/08 05:49:38;;;;;;;9.80;4.22;;;;;13.40;101927.00;;;;10466818;28;20197;-74
2023/10/08 05:54:57;;;;;;;9.45;4.82;;;;;13.50;101939.00;;;;10469211;28;20287;-75
2023/10/08 06:21:08;;;;;;;7.80;4.50;;;;;14.00;101949.00;;;;10463156;28;20675;-73
2023/10/08 06:31:16;;;;;;;10.50;4.35;;;;;14.20;101967.00;;;;10455842;28;20205;-73
2023/10/08 06:36:23;;;;;;;6.20;3.95;;;;;14.30;101962.00;;;;10411289;28;20302;-73
2023/10/08 06:41:33;;;;;;;8.93;4.22;;;;;14.40;101967.00;;;;10435100;28;20368;-73
2023/10/08 06:46:54;;;;;;;7.55;4.45;;;;;14.50;101967.00;;;;10433164;28;20198;-73
2023/10/08 06:51:56;;;;;;;8.30;4.53;;;;;14.60;101974.00;;;;10457485;28;20602;-73
2023/10/08 06:56:59;;;;;;;8.98;4.63;;;;;14.70;101966.00;;;;10469078;28;20745;-72
2023/10/08 07:02:01;;;;;;;8.32;5.60;;;;;14.90;101984.00;;;;10452858;28;20259;-73
2023/10/08 07:07:07;;;;;;;11.32;4.88;;;;;15.10;101973.00;;;;10466471;28;20286;-73
2023/10/08 07:12:14;;;;;;;11.10;4.78;;;;;15.40;101971.00;;;;10468630;28;20329;-73
2023/10/08 07:17:19;;;;;;;10.82;5.82;;;;;15.90;101972.00;;;;10462169;28;20205;-72
2023/10/08 07:22:22;;;;;;;10.93;6.32;;;;;16.20;101984.00;;;;10463484;28;20231;-74
2023/10/08 07:27:31;;;;;;;8.13;4.78;;;;;16.40;101978.00;;;;10463456;28;20209;-73
2023/10/08 07:32:34;;;;;;;9.10;5.10;;;;;16.60;101989.00;;;;10465108;28;20294;-73
2023/10/08 07:37:36;;;;;;;8.15;5.10;;;;;17.00;102006.00;;;;10464416;28;20213;-73
2023/10/08 07:42:38;;;;;;;14.65;5.18;;;;;17.20;101995.00;;;;10463099;28;20244;-73
2023/10/08 07:47:40;;;;;;;12.80;4.80;;;;;17.40;101998.00;;;;10465051;28;20646;-74
2023/10/08 07:52:44;;;;;;;8.60;4.63;;;;;17.60;102001.00;;;;10462283;28;20260;-73
2023/10/08 07:57:46;;;;;;;12.18;5.32;;;;;17.90;102011.00;;;;10462850;28;20252;-73
2023/10/08 08:02:49;;;;;;;11.75;5.68;;;;;18.00;101994.00;;;;10466512;28;20204;-73
2023/10/08 08:07:52;;;;;;;8.93;4.97;;;;;18.00;102000.00;;;;10467498;28;20248;-73
2023/10/08 08:12:56;;;;;;;10.35;5.55;;;;;18.10;101985.00;;;;10459037;28;20305;-73
2023/10/08 08:18:00;;;;;;;12.02;5.95;;;;;18.40;101987.00;;;;10461231;28;20284;-73
2023/10/08 08:23:06;;;;;;;10.77;4.97;;;;;18.90;101991.00;;;;10463104;28;20208;-73
2023/10/08 08:28:16;;;;;;;8.07;5.30;;;;;19.40;101990.00;;;;10459728;28;20772;-74
2023/10/08 08:33:29;;;;;;;9.18;5.35;;;;;19.90;101979.00;;;;10460784;28;20198;-72
2023/10/08 08:38:32;;;;;;;11.32;5.85;;;;;20.30;101991.00;;;;10461756;28;20634;-69
2023/10/08 08:43:35;;;;;;;12.73;5.40;;;;;20.60;101995.00;;;;10465963;28;20196;-71
2023/10/08 08:48:46;;;;;;;12.27;5.50;;;;;20.80;101990.00;;;;10465515;28;20783;-69
2023/10/08 08:53:49;;;;;;;13.43;5.68;;;;;21.00;102003.00;;;;10463286;28;20213;-70
2023/10/08 08:58:51;;;;;;;12.98;5.60;;;;;21.00;102007.00;;;;10465005;28;20288;-72
2023/10/08 09:04:00;;;;;;;14.18;6.80;;;;;20.90;102012.00;;;;10465369;28;20194;-71
2023/10/08 09:09:22;;;;;;;13.10;6.80;;;;;20.80;102017.00;;;;10464644;28;20182;-71
2023/10/08 09:14:25;;;;;;;11.40;5.78;;;;;20.80;102020.00;;;;10465516;28;20221;-70
2023/10/08 09:19:27;;;;;;;13.63;6.00;;;;;20.80;102012.00;;;;10462464;28;20190;-72
2023/10/08 09:24:31;;;;;;;11.68;5.93;;;;;20.90;102007.00;;;;10463096;28;20221;-70
2023/10/08 09:29:39;;;;;;;12.13;5.78;;;;;21.10;102020.00;;;;10464376;28;20186;-70
2023/10/08 09:34:43;;;;;;;16.40;6.65;;;;;21.00;102026.00;;;;10460977;28;20263;-72
2023/10/08 09:39:45;;;;;;;12.20;7.03;;;;;21.40;102020.00;;;;10461787;28;20199;-77
2023/10/08 09:44:47;;;;;;;14.05;7.03;;;;;21.70;102019.00;;;;10461222;28;20209;-75
2023/10/08 09:50:07;;;;;;;18.00;7.68;;;;;22.00;102011.00;;;;10457373;28;20753;-75
2023/10/08 09:55:12;;;;;;;18.17;7.15;;;;;22.30;102013.00;;;;10465214;28;20296;-75
2023/10/08 10:00:15;;;;;;;10.95;6.93;;;;;22.60;102015.00;;;;10464980;28;20201;-75
2023/10/08 10:05:24;;;;;;;13.07;6.38;;;;;22.90;102009.00;;;;10461926;28;20214;-75
2023/10/08 10:10:31;;;;;;;11.60;6.68;;;;;23.20;102006.00;;;;10456551;28;20199;-75
2023/10/08 10:15:35;;;;;;;11.15;6.32;;;;;23.00;102008.00;;;;10463317;28;20189;-75
2023/10/08 10:20:53;;;;;;;14.15;7.10;;;;;23.30;102011.00;;;;10457463;28;20280;-75
2023/10/08 10:25:57;;;;;;;10.43;6.72;;;;;23.50;101996.00;;;;10456881;28;20213;-75
2023/10/08 10:31:00;;;;;;;14.23;6.40;;;;;23.90;102002.00;;;;10457451;28;20273;-75
2023/10/08 10:36:05;;;;;;;17.20;7.72;;;;;23.80;101999.00;;;;10462348;28;20194;-76
2023/10/08 10:41:09;;;;;;;13.40;6.65;;;;;24.10;102012.00;;;;10460587;28;20193;-76
2023/10/08 10:46:29;;;;;;;9.63;5.45;;;;;24.30;102005.00;;;;10453237;28;20583;-75
2023/10/08 10:51:33;;;;;;;12.30;6.10;;;;;24.30;102009.00;;;;10455209;28;20213;-71
2023/10/08 10:56:47;;;;;;;13.48;5.90;;;;;24.70;102007.00;;;;10447275;28;20626;-73
2023/10/08 11:02:20;;;;;;;14.23;6.47;;;;;25.00;102006.00;;;;10447884;28;20209;-71
2023/10/08 11:07:12;;;;;;;13.48;6.00;;;;;25.30;102006.00;;;;10448480;28;20194;-71
2023/10/08 11:12:18;;;;;;;10.70;5.55;;;;;25.60;102004.00;;;;10439754;28;20209;-70
2023/10/08 11:17:26;;;;;;;11.85;5.90;;;;;25.80;101998.00;;;;10448102;28;20190;-73
2023/10/08 11:22:44;;;;;;;12.88;5.80;;;;;25.90;101989.00;;;;10453064;28;20214;-73
2023/10/08 11:27:47;;;;;;;14.40;5.57;;;;;25.80;101990.00;;;;10453434;28;20205;-70
2023/10/08 11:32:50;;;;;;;13.23;6.25;;;;;25.80;101983.00;;;;10452873;28;20301;-71
2023/10/08 11:37:53;;;;;;;9.07;5.75;;;;;25.90;101975.00;;;;10457883;28;20209;-70
2023/10/08 11:43:03;;;;;;;12.27;5.35;;;;;26.10;101956.00;;;;10451406;28;20248;-70
2023/10/08 11:48:11;;;;;;;9.75;5.57;;;;;26.20;101946.00;;;;10456081;28;20190;-72
2023/10/08 11:53:14;;;;;;;11.20;5.30;;;;;26.10;101955.00;;;;10448630;28;20248;-72
2023/10/08 11:58:20;;;;;;;12.02;5.80;;;;;26.30;101948.00;;;;10454135;28;20199;-72
2023/10/08 12:03:26;;;;;;;10.73;5.90;;;;;26.40;101948.00;;;;10452379;28;20221;-73
2023/10/08 12:08:28;;;;;;;12.95;5.53;;;;;26.30;101947.00;;;;10458633;28;20850;-73
2023/10/08 12:13:31;;;;;;;12.98;6.15;;;;;26.50;101939.00;;;;10454262;28;20213;-73
2023/10/08 12:18:39;;;;;;;13.02;5.72;;;;;26.40;101928.00;;;;10468988;28;20655;-73
2023/10/08 12:23:45;;;;;;;11.95;5.88;;;;;26.30;101936.00;;;;10458686;28;20197;-73
2023/10/08 12:28:48;;;;;;;12.52;5.65;;;;;26.40;101934.00;;;;10453691;28;20202;-73
2023/10/08 12:33:56;;;;;;;14.30;5.80;;;;;26.30;101939.00;;;;10452378;28;20206;-73
2023/10/08 12:38:59;;;;;;;13.23;5.80;;;;;26.70;101925.00;;;;10458069;28;20988;-73
2023/10/08 12:44:03;;;;;;;14.23;6.88;;;;;26.70;101930.00;;;;10455995;28;20360;-73
2023/10/08 12:49:04;;;;;;;13.32;5.90;;;;;26.30;101924.00;;;;10455080;28;20268;-73
2023/10/08 12:54:07;;;;;;;10.75;6.13;;;;;26.40;101934.00;;;;10459690;28;20220;-73
2023/10/08 12:59:20;;;;;;;12.52;6.60;;;;;26.00;101922.00;;;;10454438;28;20193;-73
2023/10/08 13:04:28;;;;;;;12.05;6.40;;;;;25.30;101915.00;;;;10458121;28;20198;-73
2023/10/08 13:09:31;;;;;;;11.18;6.35;;;;;24.80;101917.00;;;;10458637;28;20198;-74
2023/10/08 13:14:34;;;;;;;11.63;6.30;;;;;24.50;101902.00;;;;10459474;28;20221;-75
2023/10/08 13:19:37;;;;;;;10.00;5.55;;;;;24.30;101900.00;;;;10473689;28;20674;-74
2023/10/08 13:24:41;;;;;;;9.63;5.97;;;;;24.10;101902.00;;;;10462234;28;20214;-74
2023/10/08 13:29:43;;;;;;;10.80;6.47;;;;;24.20;101897.00;;;;10463400;28;20186;-74
2023/10/08 13:34:46;;;;;;;12.00;6.10;;;;;24.80;101892.00;;;;10469692;28;20305;-75
2023/10/08 13:39:48;;;;;;;8.95;5.70;;;;;24.80;101899.00;;;;10474812;28;20283;-74
2023/10/08 13:44:51;;;;;;;12.07;6.30;;;;;25.00;101893.00;;;;10462135;28;20197;-74
2023/10/08 13:49:53;;;;;;;8.95;5.38;;;;;24.70;101884.00;;;;10464378;28;20202;-74
2023/10/08 13:54:55;;;;;;;11.57;6.32;;;;;25.00;101874.00;;;;10461594;28;20205;-75
2023/10/08 13:59:59;;;;;;;10.38;5.95;;;;;25.30;101864.00;;;;10465189;28;20213;-74
2023/10/08 14:05:08;;;;;;;11.20;5.88;;;;;24.90;101870.00;;;;10464482;28;20288;-74
2023/10/08 14:10:18;;;;;;;10.07;5.63;;;;;24.70;101862.00;;;;10460009;28;20214;-74
2023/10/08 14:15:22;;;;;;;11.00;5.50;;;;;24.40;101864.00;;;;10454112;28;20222;-74
2023/10/08 14:20:31;;;;;;;11.25;5.97;;;;;25.00;101858.00;;;;10456484;28;20183;-72
2023/10/08 14:25:42;;;;;;;10.25;6.00;;;;;24.50;101870.00;;;;10446400;28;20217;-70
2023/10/08 14:30:43;;;;;;;12.35;5.40;;;;;24.20;101857.00;;;;10450186;28;20208;-71
2023/10/08 14:46:38;;;;;;;15.10;5.63;;;;;23.60;101848.00;;;;10412145;28;20260;-71
2023/10/08 14:51:40;;;;;;;11.88;5.57;;;;;23.60;101852.00;;;;10444717;28;20213;-70
2023/10/08 14:56:42;;;;;;;12.55;5.82;;;;;23.60;101857.00;;;;10443718;28;20781;-72
2023/10/08 15:01:47;;;;;;;9.60;5.70;;;;;23.60;101846.00;;;;10448620;28;20267;-72
2023/10/08 15:06:49;;;;;;;9.73;5.60;;;;;23.60;101848.00;;;;10449102;28;20197;-72
2023/10/08 15:11:52;;;;;;;7.82;5.07;;;;;23.60;101841.00;;;;10452779;28;20241;-71
2023/10/08 15:16:56;;;;;;;12.70;5.50;;;;;23.50;101837.00;;;;10444416;28;20732;-72
2023/10/08 15:21:58;;;;;;;7.25;5.03;;;;;23.40;101833.00;;;;10447142;28;20218;-72
2023/10/08 15:27:00;;;;;;;8.65;5.30;;;;;23.20;101828.00;;;;10445366;28;20937;-73
2023/10/08 15:32:02;;;;;;;10.90;5.25;;;;;22.90;101823.00;;;;10444667;28;20303;-70
2023/10/08 15:37:04;;;;;;;11.45;5.30;;;;;22.70;101830.00;;;;10448045;28;20217;-71
2023/10/08 15:42:06;;;;;;;9.63;5.40;;;;;22.60;101818.00;;;;10449590;28;20786;-73
2023/10/08 15:47:08;;;;;;;10.20;5.07;;;;;22.60;101821.00;;;;10451233;28;20205;-71
2023/10/08 15:52:10;;;;;;;8.82;4.97;;;;;22.40;101823.00;;;;10447557;28;20632;-71
2023/10/08 15:57:12;;;;;;;11.30;5.20;;;;;22.30;101827.00;;;;10454207;28;20213;-73
2023/10/08 16:02:14;;;;;;;8.13;5.18;;;;;22.20;101823.00;;;;10456578;28;20190;-72
2023/10/08 16:07:17;;;;;;;9.63;4.65;;;;;22.10;101819.00;;;;10454747;28;21086;-71
2023/10/08 16:12:19;;;;;;;9.18;5.30;;;;;22.00;101821.00;;;;10452425;28;20301;-70
2023/10/08 16:17:23;;;;;;;10.48;5.55;;;;;21.80;101823.00;;;;10455875;28;20201;-72
2023/10/08 16:22:25;;;;;;;12.02;6.25;;;;;21.60;101821.00;;;;10433891;28;20205;-72
2023/10/08 16:27:27;;;;;;;11.38;6.15;;;;;21.40;101827.00;;;;10458860;28;20233;-73
2023/10/08 16:32:29;;;;;;;7.18;4.50;;;;;21.30;101831.00;;;;10449359;28;20209;-71
2023/10/08 16:37:31;;;;;;;8.15;5.18;;;;;21.10;101824.00;;;;10439150;28;20191;-70
2023/10/08 16:42:35;;;;;;;10.85;5.88;;;;;21.00;101822.00;;;;10456812;28;20279;-74
2023/10/08 16:47:36;;;;;;;12.20;6.38;;;;;20.70;101831.00;;;;10457742;28;20197;-73
2023/10/08 16:52:39;;;;;;;10.95;5.88;;;;;20.40;101820.00;;;;10440596;28;20302;-73
2023/10/08 16:57:41;;;;;;;14.98;6.28;;;;;20.20;101831.00;;;;10397070;28;20209;-73
2023/10/08 17:02:43;;;;;;;11.20;6.45;;;;;19.90;101825.00;;;;10425118;28;20202;-73
2023/10/08 17:07:45;;;;;;;10.30;6.50;;;;;19.70;101830.00;;;;10422305;28;20196;-74
2023/10/08 17:12:51;;;;;;;11.57;6.10;;;;;19.40;101824.00;;;;10379639;28;20222;-74
2023/10/08 17:17:53;;;;;;;14.25;6.53;;;;;19.20;101830.00;;;;10426501;28;21087;-73
2023/10/08 17:22:55;;;;;;;10.65;5.93;;;;;19.00;101825.00;;;;10457679;28;20225;-73
2023/10/08 17:27:57;;;;;;;14.63;6.05;;;;;18.80;101832.00;;;;10455357;28;20209;-75
2023/10/08 17:32:59;;;;;;;12.75;6.38;;;;;18.60;101826.00;;;;10379489;28;20224;-74
2023/10/08 17:38:02;;;;;;;10.93;5.93;;;;;18.40;101834.00;;;;10398332;28;20205;-74
2023/10/08 17:43:04;;;;;;;10.23;6.55;;;;;18.10;101827.00;;;;10397068;28;20198;-75
2023/10/08 17:48:07;;;;;;;10.32;6.88;;;;;18.00;101823.00;;;;10397288;28;20304;-74
2023/10/08 17:53:10;;;;;;;12.20;7.20;;;;;17.80;101817.00;;;;10391764;28;20287;-73
2023/10/08 17:58:12;;;;;;;16.23;7.05;;;;;17.70;101807.00;;;;10381403;28;20208;-72
2023/10/08 18:03:15;;;;;;;11.18;7.20;;;;;17.60;101811.00;;;;10384681;28;20201;-72
2023/10/08 18:08:18;;;;;;;11.35;6.90;;;;;17.60;101796.00;;;;10371018;28;20248;-72
2023/10/08 18:13:20;;;;;;;17.90;6.75;;;;;17.60;101786.00;;;;10385168;28;20214;-72
2023/10/08 18:18:25;;;;;;;11.77;7.03;;;;;17.60;101779.00;;;;10313854;28;20208;-74
2023/10/08 18:23:28;;;;;;;12.10;6.43;;;;;17.50;101770.00;;;;10317206;28;20221;-72
2023/10/08 18:28:30;;;;;;;9.02;6.45;;;;;17.50;101768.00;;;;10325813;28;22704;-72
2023/10/08 18:33:39;;;;;;;12.75;6.68;;;;;17.50;101767.00;;;;10326889;28;20312;-72
2023/10/08 18:38:42;;;;;;;10.98;6.32;;;;;17.40;101760.00;;;;10327649;28;20196;-72
2023/10/08 18:43:44;;;;;;;13.07;7.25;;;;;17.40;101749.00;;;;10330890;28;20201;-72
2023/10/08 18:48:47;;;;;;;13.30;7.63;;;;;17.30;101751.00;;;;10328896;28;20189;-72
2023/10/08 18:53:50;;;;;;;14.15;7.25;;;;;17.30;101753.00;;;;10390000;28;20224;-72
2023/10/08 18:58:52;;;;;;;12.70;8.02;;;;;17.20;101751.00;;;;10394969;28;21899;-72
2023/10/08 19:03:55;;;;;;;12.98;6.70;;;;;17.10;101737.00;;;;10445227;28;20822;-73
2023/10/08 19:08:57;;;;;;;8.27;5.78;;;;;17.10;101732.00;;;;10461244;28;20193;-73
2023/10/08 19:14:01;;;;;;;10.70;5.93;;;;;17.10;101729.00;;;;10445437;28;20344;-73
2023/10/08 19:19:04;;;;;;;12.57;6.18;;;;;17.20;101726.00;;;;10464359;28;20203;-73
2023/10/08 19:24:07;;;;;;;9.20;5.72;;;;;17.10;101724.00;;;;10471079;28;20225;-73
2023/10/08 19:29:09;;;;;;;11.45;6.25;;;;;17.10;101740.00;;;;10467027;28;20218;-73
2023/10/08 19:34:13;;;;;;;11.75;6.40;;;;;17.00;101721.00;;;;10459255;28;20210;-74
2023/10/08 19:39:15;;;;;;;9.23;5.90;;;;;17.00;101726.00;;;;10452757;28;20210;-73
2023/10/08 19:44:17;;;;;;;12.32;6.32;;;;;17.00;101722.00;;;;10427726;28;20217;-73
2023/10/08 19:49:19;;;;;;;8.27;5.18;;;;;17.00;101723.00;;;;10455828;28;20233;-73
2023/10/08 19:54:21;;;;;;;10.80;6.35;;;;;17.00;101728.00;;;;10456926;28;20306;-73
2023/10/08 19:59:25;;;;;;;12.40;6.28;;;;;16.90;101735.00;;;;10456239;28;20212;-73
2023/10/08 20:04:27;;;;;;;10.35;6.32;;;;;16.70;101734.00;;;;10452010;28;20217;-73
2023/10/08 20:09:30;;;;;;;9.05;6.10;;;;;16.50;101742.00;;;;10450466;28;20210;-73
2023/10/08 20:14:32;;;;;;;8.70;6.22;;;;;16.30;101735.00;;;;10446253;28;20221;-73
2023/10/08 20:19:35;;;;;;;11.27;6.25;;;;;16.10;101732.00;;;;10449647;28;20201;-73
2023/10/08 20:24:38;;;;;;;11.18;7.40;;;;;16.00;101718.00;;;;10454160;28;20209;-73
2023/10/08 20:29:40;;;;;;;10.77;7.00;;;;;15.80;101728.00;;;;10456249;28;20209;-73
2023/10/08 20:34:42;;;;;;;10.20;7.10;;;;;15.80;101724.00;;;;10456474;28;20228;-73
2023/10/08 20:39:44;;;;;;;14.85;7.95;;;;;15.70;101727.00;;;;10462111;28;20607;-73
2023/10/08 20:44:46;;;;;;;13.80;8.10;;;;;15.60;101714.00;;;;10465830;28;20205;-73
2023/10/08 20:49:48;;;;;;;12.18;7.30;;;;;15.60;101724.00;;;;10460765;28;20235;-73
2023/10/08 20:54:51;;;;;;;13.13;7.72;;;;;15.60;101721.00;;;;10459570;28;20240;-73
2023/10/08 20:59:53;;;;;;;11.57;6.78;;;;;15.60;101722.00;;;;10458239;28;20220;-73
2023/10/08 21:04:56;;;;;;;13.00;7.88;;;;;15.60;101713.00;;;;10466873;28;20206;-73
2023/10/08 21:10:00;;;;;;;12.77;8.02;;;;;15.60;101719.00;;;;10460444;28;20206;-73
2023/10/08 21:15:04;;;;;;;12.65;7.30;;;;;15.50;101709.00;;;;10443848;28;21010;-73
2023/10/08 21:20:09;;;;;;;14.90;7.25;;;;;15.50;101702.00;;;;10462201;28;20205;-71
2023/10/08 21:25:13;;;;;;;10.90;7.70;;;;;15.60;101713.00;;;;10452942;28;20885;-72
2023/10/08 21:30:15;;;;;;;11.60;7.72;;;;;15.60;101700.00;;;;10455098;28;20216;-73
2023/10/08 21:35:19;;;;;;;11.80;7.53;;;;;15.70;101700.00;;;;10456274;28;20226;-72
2023/10/08 21:40:21;;;;;;;13.70;7.32;;;;;15.70;101701.00;;;;10452649;28;20244;-73
2023/10/08 21:45:23;;;;;;;13.70;6.88;;;;;15.70;101698.00;;;;10452694;28;20212;-70
2023/10/08 21:50:25;;;;;;;11.93;6.93;;;;;15.70;101692.00;;;;10455739;28;20240;-70
2023/10/08 21:55:27;;;;;;;9.07;6.45;;;;;15.70;101694.00;;;;10458954;28;20221;-71
2023/10/08 22:05:33;;;;;;;11.90;6.93;;;;;15.70;101691.00;;;;10458863;28;20215;-71
2023/10/08 22:10:36;;;;;;;11.80;7.10;;;;;15.60;101685.00;;;;10459648;28;20209;-71
2023/10/08 22:15:47;;;;;;;11.65;6.97;;;;;15.70;101681.00;;;;10443293;28;20237;-71
2023/10/08 22:20:51;;;;;;;10.88;7.15;;;;;15.70;101669.00;;;;10458855;28;20851;-70
2023/10/08 22:25:54;;;;;;;12.70;7.60;;;;;15.70;101673.00;;;;10459461;28;20279;-71
2023/10/08 22:30:58;;;;;;;17.88;8.25;;;;;15.70;101666.00;;;;10450356;28;20296;-71
2023/10/08 22:36:20;;;;;;;11.95;7.10;;;;;15.70;101663.00;;;;10446589;28;20217;-70
2023/10/08 22:41:22;;;;;;;10.43;6.95;;;;;15.70;101655.00;;;;10460025;28;20215;-70
2023/10/08 22:46:25;;;;;;;11.68;6.97;;;;;15.70;101655.00;;;;10452826;28;20726;-72
2023/10/08 22:51:27;;;;;;;17.40;7.47;;;;;15.70;101655.00;;;;10450581;28;20699;-71
2023/10/08 22:56:31;;;;;;;10.70;6.80;;;;;15.60;101648.00;;;;10454989;28;20415;-72
2023/10/08 23:01:33;;;;;;;14.07;7.32;;;;;15.60;101651.00;;;;10454134;28;20290;-71
2023/10/08 23:06:35;;;;;;;8.90;6.18;;;;;15.50;101649.00;;;;10456140;28;20753;-72
2023/10/08 23:11:40;;;;;;;14.02;6.50;;;;;15.50;101647.00;;;;10456011;28;20206;-70
2023/10/08 23:16:42;;;;;;;11.38;7.38;;;;;15.50;101645.00;;;;10447102;28;20230;-72
2023/10/08 23:21:45;;;;;;;12.68;7.30;;;;;15.50;101643.00;;;;10446682;28;20221;-70
2023/10/08 23:26:48;;;;;;;10.77;7.13;;;;;15.50;101647.00;;;;10447457;28;20197;-70
2023/10/08 23:31:58;;;;;;;10.68;7.00;;;;;15.50;101637.00;;;;10455437;28;20208;-71
2023/10/08 23:37:09;;;;;;;12.07;7.45;;;;;15.40;101631.00;;;;10451348;28;20226;-70
2023/10/08 23:42:24;;;;;;;11.80;6.88;;;;;15.40;101622.00;;;;10451524;28;21124;-75
2023/10/08 23:47:26;;;;;;;11.02;6.82;;;;;15.30;101603.00;;;;10454964;28;20244;-75
2023/10/08 23:52:32;;;;;;;10.07;6.95;;;;;15.30;101604.00;;;;10454860;28;20232;-76
2023/10/08 23:57:46;;;;;;;13.18;7.97;;;;;15.40;101598.00;;;;10447343;28;20258;-74
